Latest Weather Observations for Hobart Airport

IDT60801

Issued at 4:32 pm EDT Sunday 26 February 2017 (issued every 30 minutes, with the page automatically refreshed every 10 minutes)

About weather observations | Map of weather stations | Latest weather observations for TAS | Other Formats
Station Details ID: 094008 Name: HOBART AIRPORT Lat: -42.83 Lon: 147.50 Height: 4.0 m
Data from the previous 72 hours. | See also: Recent months at Hobart Airport
Date/Time
EDT
Temp
°C
App
Temp
°C
Dew
Point
°C
Rel
Hum
%
Delta-T
°C
Wind Press
QNH
hPa
Press
MSL
hPa
Rain since
9am
mm
Dir  Spd
km/h
Gust
km/h
Spd
kts
Gust
kts
26/04:00pm 22.1 18.0 8.7 42 7.1 SE 20 30 11 16 1023.8 1023.8 0.0
26/03:30pm 22.7 18.9 9.7 43 7.0 SE 20 32 11 17 1024.0 1024.0 0.0
26/03:00pm 22.5 17.5 8.2 40 7.5 SE 24 33 13 18 1024.1 1024.1 0.0
26/02:30pm 22.2 17.9 7.0 37 7.8 ESE 19 28 10 15 1024.3 1024.3 0.0
26/02:00pm 21.5 16.7 7.3 40 7.3 SE 22 30 12 16 1024.5 1024.5 0.0
26/01:30pm 21.2 18.7 8.4 43 6.7 SE 11 20 6 11 1024.7 1024.7 0.0
26/01:00pm 22.1 18.7 6.0 35 8.1 W 13 19 7 10 1025.1 1025.1 0.0
26/12:30pm 21.6 17.8 5.7 35 8.0 NW 15 24 8 13 1025.4 1025.4 0.0
26/12:00pm 20.1 16.4 6.5 41 6.8 NNW 15 22 8 12 1025.6 1025.6 0.0
26/11:30am 19.5 15.4 6.4 42 6.5 NNW 17 24 9 13 1025.7 1025.7 0.0
26/11:00am 18.8 15.5 6.5 44 6.1 NW 13 19 7 10 1026.0 1026.0 0.0
26/10:30am 17.4 13.8 6.6 49 5.3 NNW 15 19 8 10 1026.3 1026.3 0.0
26/10:00am 16.4 12.0 6.6 52 4.8 NW 19 26 10 14 1026.5 1026.5 0.0
26/09:30am 15.4 11.4 6.8 56 4.2 NW 17 24 9 13 1026.4 1026.4 0.0
26/09:00am 14.2 10.5 6.5 60 3.7 NNW 15 22 8 12 1026.3 1026.3 0.0
26/08:30am 12.4 8.7 6.5 67 2.8 NW 15 22 8 12 1026.3 1026.3 0.0
26/08:00am 11.8 8.1 6.5 70 2.5 NNW 15 20 8 11 1026.2 1026.2 0.0
26/07:30am 10.5 7.6 6.7 77 1.8 NNW 11 15 6 8 1025.9 1025.9 0.0
26/07:00am 9.4 6.9 6.6 83 1.3 WNW 9 11 5 6 1025.7 1025.7 0.0
26/06:30am 9.6 5.9 6.3 80 1.5 NNW 15 19 8 10 1025.3 1025.3 0.0
26/06:00am 9.7 5.8 6.9 83 1.3 NW 17 19 9 10 1025.2 1025.2 0.0
26/05:30am 8.9 5.0 7.0 88 0.9 NNW 17 20 9 11 1025.3 1025.3 0.0
26/05:00am 9.2 5.2 6.6 84 1.2 WNW 17 22 9 12 1025.0 1025.0 0.0
26/04:30am 9.4 5.7 6.1 80 1.5 NW 15 19 8 10 1024.9 1024.9 0.0
26/04:00am 9.2 4.8 6.4 83 1.3 NW 19 26 10 14 1025.4 1025.4 0.0
26/03:30am 9.4 6.1 6.6 83 1.3 NW 13 17 7 9 1025.4 1025.4 0.0
26/03:00am 9.5 6.3 6.7 83 1.3 NNW 13 19 7 10 1025.6 1025.6 0.0
26/02:30am 10.2 6.2 6.5 78 1.7 NW 17 19 9 10 1026.2 1026.2 0.0
26/02:00am 9.9 7.1 6.9 81 1.4 NW 11 13 6 7 1026.3 1026.3 0.0
26/01:30am 10.8 7.7 7.4 79 1.6 NW 13 15 7 8 1026.4 1026.4 0.0
26/01:00am 10.0 7.8 6.3 78 1.7 NW 7 9 4 5 1026.6 1026.6 0.0
26/12:30am 10.2 9.2 5.8 74 2.0 CALM 0 0 0 0 1026.9 1026.9 0.0
26/12:00am 11.4 10.4 5.8 68 2.6 CALM 0 0 0 0 1027.0 1027.0 0.0
 
Date/Time
EDT
Temp
°C
App
Temp
°C
Dew
Point
°C
Rel
Hum
%
Delta-T
°C
Wind Press
QNH
hPa
Press
MSL
hPa
Rain since
9am
mm
Dir  Spd
km/h
Gust
km/h
Spd
kts
Gust
kts
25/11:30pm 12.1 10.1 7.1 71 2.4 ENE 7 7 4 4 1027.1 1027.1 0.0
25/11:00pm 13.4 11.5 6.7 64 3.2 ESE 6 7 3 4 1027.2 1027.2 0.0
25/10:30pm 14.0 11.9 6.5 60 3.6 ESE 7 11 4 6 1027.6 1027.6 0.0
25/10:00pm 14.1 12.0 6.8 61 3.5 E 7 11 4 6 1027.7 1027.7 0.0
25/09:30pm 14.5 12.1 7.1 61 3.6 ESE 9 15 5 8 1027.6 1027.6 0.0
25/09:00pm 14.8 12.3 6.5 57 4.0 ESE 9 15 5 8 1027.1 1027.1 0.0
25/08:30pm 14.5 11.9 5.9 56 4.1 ESE 9 15 5 8 1026.7 1026.7 0.0
25/08:00pm 14.9 10.8 6.4 57 4.1 SSE 17 20 9 11 1026.4 1026.4 0.0
25/07:30pm 15.0 10.0 6.5 57 4.1 S 22 30 12 16 1026.2 1026.2 0.0
25/07:00pm 15.5 10.0 6.1 53 4.5 SSE 24 32 13 17 1025.9 1025.9 0.0
25/06:30pm 16.1 10.2 5.9 50 4.9 S 26 33 14 18 1025.7 1025.7 0.0
25/06:00pm 16.5 10.2 5.7 49 5.2 SSE 28 33 15 18 1025.4 1025.4 0.0
25/05:30pm 16.4 10.4 5.5 48 5.2 SSE 26 33 14 18 1025.4 1025.4 0.0
25/05:00pm 17.1 11.1 5.1 45 5.7 SSE 26 33 14 18 1025.4 1025.4 0.0
25/04:30pm 17.7 11.7 5.2 43 6.0 SE 26 33 14 18 1025.4 1025.4 0.0
25/04:00pm 17.9 11.6 4.0 39 6.5 SE 26 33 14 18 1025.6 1025.6 0.0
25/03:30pm 18.0 12.2 2.3 35 7.1 SSE 22 30 12 16 1025.6 1025.6 0.0
25/03:00pm 17.1 11.4 3.1 39 6.4 SE 22 30 12 16 1026.0 1026.0 0.0
25/02:30pm 17.6 11.6 3.3 38 6.6 SE 24 30 13 16 1026.5 1026.5 0.0
25/02:00pm 17.2 11.9 2.9 38 6.5 SSE 20 30 11 16 1026.7 1026.7 0.0
25/01:30pm 17.0 11.7 2.9 39 6.4 SE 20 28 11 15 1026.7 1026.7 0.0
25/01:00pm 17.0 11.7 2.9 39 6.4 SE 20 28 11 15 1026.9 1026.9 0.0
25/12:30pm 16.5 12.0 2.1 38 6.4 ESE 15 20 8 11 1026.9 1026.9 0.0
25/12:00pm 16.3 12.8 1.5 36 6.5 ESE 9 19 5 10 1027.0 1027.0 0.0
25/11:30am 16.9 13.5 2.1 37 6.7 NNE 9 17 5 9 1027.2 1027.2 0.0
25/11:00am 16.3 12.5 1.8 37 6.4 NE 11 15 6 8 1027.5 1027.5 0.0
25/10:30am 15.9 12.5 1.8 38 6.2 NNW 9 15 5 8 1027.6 1027.6 0.0
25/10:00am 14.6 10.1 2.3 43 5.4 NNW 15 22 8 12 1027.5 1027.5 0.0
25/09:30am 13.6 8.9 3.3 49 4.6 NNW 17 24 9 13 1027.6 1027.6 0.0
25/09:00am 12.1 7.6 4.0 57 3.6 NW 17 24 9 13 1027.7 1027.7 0.0
25/08:30am 11.1 7.3 3.8 61 3.2 NNW 13 17 7 9 1027.4 1027.4 0.0
25/08:00am 10.0 5.1 4.1 67 2.6 NW 19 22 10 12 1027.2 1027.2 0.0
25/07:30am 9.9 5.6 3.4 64 2.8 NW 15 19 8 10 1027.1 1027.1 0.0
25/07:00am 9.1 5.7 3.8 69 2.3 NNW 11 17 6 9 1026.8 1026.8 0.0
25/06:30am 8.7 4.5 3.6 70 2.2 NW 15 15 8 8 1026.6 1026.6 0.0
25/06:00am 8.4 4.7 2.4 66 2.5 WNW 11 13 6 7 1026.2 1026.2 0.0
25/05:30am 8.6 4.7 3.5 70 2.2 WNW 13 17 7 9 1026.0 1026.0 0.0
25/05:00am 9.1 4.5 3.8 69 2.3 WNW 17 20 9 11 1025.8 1025.8 0.0
25/04:30am 9.5 5.4 4.5 71 2.2 NW 15 19 8 10 1025.7 1025.7 0.0
25/04:00am 9.6 6.5 1.6 57 3.3 W 7 11 4 6 1025.5 1025.5 0.0
25/03:30am 9.7 6.2 3.7 66 2.6 SW 11 13 6 7 1025.4 1025.4 0.0
25/03:00am 10.8 5.7 3.2 59 3.3 WSW 19 22 10 12 1025.4 1025.4 0.0
25/02:30am 11.3 8.3 4.1 61 3.2 S 9 15 5 8 1025.6 1025.6 0.0
25/02:00am 11.9 9.3 4.1 59 3.5 NNW 7 11 4 6 1025.9 1025.9 0.0
25/01:30am 10.9 8.4 3.6 60 3.2 S 6 9 3 5 1025.8 1025.8 0.0
25/01:00am 12.0 9.3 3.9 57 3.6 WNW 7 13 4 7 1025.4 1025.4 0.0
25/12:30am 12.2 8.5 4.7 60 3.4 SSW 13 19 7 10 1025.0 1025.0 0.0
25/12:00am 12.6 8.1 4.4 57 3.7 SSW 17 26 9 14 1024.8 1024.8 0.0
 
Date/Time
EDT
Temp
°C
App
Temp
°C
Dew
Point
°C
Rel
Hum
%
Delta-T
°C
Wind Press
QNH
hPa
Press
MSL
hPa
Rain since
9am
mm
Dir  Spd
km/h
Gust
km/h
Spd
kts
Gust
kts
24/11:30pm 12.3 8.6 4.3 58 3.6 S 13 15 7 8 1024.8 1024.8 0.0
24/11:00pm 13.1 9.3 4.0 54 4.1 SSW 13 22 7 12 1024.8 1024.8 0.0
24/10:30pm 12.6 9.3 4.7 58 3.6 S 11 15 6 8 1024.9 1024.9 0.0
24/10:00pm 12.7 9.6 7.1 69 2.7 SSW 13 17 7 9 1024.8 1024.8 0.0
24/09:30pm 13.9 9.6 7.1 63 3.3 SSW 19 26 10 14 1024.5 1024.5 0.0
24/09:00pm 14.5 9.4 4.3 50 4.7 SW 20 30 11 16 1023.9 1023.9 0.0
24/08:30pm 15.0 10.5 4.1 48 5.0 SW 17 20 9 11 1023.4 1023.4 0.0
24/08:00pm 15.4 10.6 4.4 48 5.1 SW 19 30 10 16 1022.9 1022.9 0.0
24/07:30pm 16.2 10.5 5.0 47 5.3 SSW 24 35 13 19 1022.6 1022.6 0.0
24/07:00pm 16.3 10.7 5.4 48 5.2 SW 24 32 13 17 1022.3 1022.3 0.0
24/06:30pm 16.9 12.1 5.4 46 5.5 SW 20 33 11 18 1022.0 1022.0 0.0
24/06:00pm 17.5 10.8 5.5 45 5.8 SSW 30 37 16 20 1021.5 1021.5 0.0
24/05:30pm 18.1 11.5 6.1 45 5.9 SW 30 37 16 20 1021.2 1021.2 0.0
24/05:00pm 17.6 10.8 7.9 53 4.9 SW 33 46 18 25 1021.1 1021.1 0.0
24/04:30pm 17.0 10.5 8.1 55 4.5 SSW 32 41 17 22 1020.8 1020.8 0.0
24/04:05pm 17.4 11.1 7.4 52 5.0 SSW 30 54 16 29 1020.5 1020.5 0.0
24/04:00pm 18.1 12.4 6.9 48 5.6 SW 26 37 14 20 1020.5 1020.5 0.0
24/03:30pm 20.5 17.2 4.6 35 7.7 WNW 11 17 6 9 1020.1 1020.1 0.0
24/03:00pm 19.6 14.7 5.2 38 7.0 SW 20 30 11 16 1020.2 1020.2 0.0
24/02:30pm 20.4 16.3 4.5 35 7.7 WSW 15 24 8 13 1020.2 1020.2 0.0
24/02:00pm 20.3 14.4 4.0 34 7.8 W 24 33 13 18 1020.1 1020.1 0.0
24/01:30pm 19.8 14.3 3.8 34 7.6 WNW 22 33 12 18 1019.9 1019.9 0.0
24/01:00pm 20.3 14.8 4.0 34 7.8 NW 22 33 12 18 1020.3 1020.3 0.0
24/12:30pm 20.0 12.5 3.5 33 7.8 WNW 32 43 17 23 1020.7 1020.7 0.0
24/12:09pm 18.4 10.1 4.3 39 6.7 W 37 56 20 30 1020.8 1020.8 0.0
24/12:00pm 18.8 10.6 4.6 39 6.8 W 37 52 20 28 1020.8 1020.8 0.0
24/11:54am 18.5 12.0 4.7 40 6.6 WNW 28 50 15 27 1020.8 1020.8 0.0
24/11:30am 18.1 10.6 4.7 41 6.4 W 33 46 18 25 1021.0 1021.0 0.0
24/11:00am 18.8 11.8 4.0 37 7.0 WNW 30 48 16 26 1020.8 1020.8 0.0
24/10:54am 18.6 12.0 4.3 38 6.8 WNW 28 48 15 26 1020.9 1020.9 0.0
24/10:30am 17.2 9.9 4.5 43 6.0 WNW 32 43 17 23 1020.8 1020.8 0.0
24/10:00am 16.9 11.1 4.6 44 5.8 WNW 24 37 13 20 1021.0 1021.0 0.0
24/09:30am 15.8 9.7 5.0 48 5.1 NW 26 37 14 20 1021.0 1021.0 0.0
24/09:00am 15.0 11.2 6.0 55 4.3 NNW 15 22 8 12 1020.8 1020.8 0.0
24/08:30am 14.6 10.4 5.5 54 4.3 NNW 17 24 9 13 1020.7 1020.7 0.0
24/08:00am 14.4 9.5 5.2 54 4.3 NW 20 30 11 16 1020.3 1020.3 0.0
24/07:30am 14.4 9.8 5.5 55 4.2 NW 19 26 10 14 1020.2 1020.2 0.0
24/07:00am 14.3 10.2 6.4 59 3.8 NW 17 26 9 14 1020.1 1020.1 0.0
24/06:30am 14.2 10.3 7.0 62 3.5 NW 17 22 9 12 1019.9 1019.9 0.0
24/06:00am 14.2 10.6 8.2 67 3.0 NW 17 24 9 13 1019.5 1019.5 0.0
24/05:30am 14.2 10.6 8.4 68 2.9 NW 17 20 9 11 1019.3 1019.3 0.0
24/05:00am 14.7 10.9 9.2 69 2.8 NW 19 24 10 13 1019.3 1019.3 0.0
24/04:30am 14.9 13.6 11.3 79 1.9 NW 9 13 5 7 1019.3 1019.3 0.0
24/04:00am 14.8 13.6 11.6 81 1.7 NW 9 13 5 7 1019.3 1019.3 0.0
24/03:30am 14.9 15.0 11.5 80 1.8 WSW 2 7 1 4 1019.2 1019.2 0.0
24/03:00am 14.3 14.0 11.3 82 1.6 SSE 4 6 2 3 1019.2 1019.2 0.0
24/02:30am 13.9 13.9 11.1 83 1.5 E 2 6 1 3 1019.3 1019.3 0.0
24/02:00am 14.6 13.7 11.4 81 1.7 SE 7 9 4 5 1019.3 1019.3 0.0
24/01:30am 15.3 14.2 11.8 79 1.9 SE 9 13 5 7 1019.5 1019.5 0.0
24/01:00am 15.2 14.7 12.5 84 1.5 ESE 7 9 4 5 1019.6 1019.6 0.0
24/12:30am 15.4 13.5 11.9 79 1.9 SE 13 17 7 9 1019.4 1019.4 0.0
24/12:00am 15.7 13.2 12.4 81 1.8 SSE 17 22 9 12 1019.6 1019.6 0.0
 
Date/Time
EDT
Temp
°C
App
Temp
°C
Dew
Point
°C
Rel
Hum
%
Delta-T
°C
Wind Press
QNH
hPa
Press
MSL
hPa
Rain since
9am
mm
Dir  Spd
km/h
Gust
km/h
Spd
kts
Gust
kts
23/11:30pm 16.0 13.9 12.3 79 2.0 SSE 15 19 8 10 1019.3 1019.3 0.0
23/11:15pm 16.0 13.5 12.3 79 2.0 SSE 17 20 9 11 1019.1 1019.1 0.0
23/11:04pm 16.1 14.4 12.5 79 2.0 SE 13 19 7 10 1018.8 1018.8 0.0
23/11:00pm 16.0 13.9 12.5 80 1.9 SE 15 24 8 13 1018.7 1018.7 0.0
23/10:52pm 16.0 13.6 12.5 80 1.9 SE 17 24 9 13 1018.6 1018.6 0.0
23/10:30pm 16.4 14.0 12.6 78 2.1 SE 17 24 9 13 1018.4 1018.4 0.0
23/10:00pm 16.8 15.3 13.2 79 2.0 SE 13 20 7 11 1018.3 1018.3 0.0
23/09:30pm 17.5 15.0 13.6 78 2.2 SE 19 28 10 15 1018.0 1018.0 0.0
23/09:24pm 17.6 16.0 13.9 79 2.1 SE 15 24 8 13 1017.8 1017.8 0.0
23/09:00pm 17.8 17.7 13.9 78 2.2 ESE 7 9 4 5 1017.2 1017.2 0.0
23/08:30pm 18.6 17.9 14.4 76 2.4 ENE 11 17 6 9 1016.4 1016.4 0.0
23/08:00pm 19.2 18.1 14.2 73 2.9 ESE 13 19 7 10 1015.6 1015.6 0.0
23/07:30pm 19.8 17.6 14.5 71 3.1 SE 19 30 10 16 1014.9 1014.8 0.0
23/07:00pm 20.7 18.3 14.4 67 3.7 SSE 20 26 11 14 1014.2 1014.1 0.0
23/06:30pm 21.2 19.0 14.4 65 4.0 SE 19 28 10 15 1013.4 1013.3 0.0
23/06:00pm 22.6 19.1 12.2 51 5.9 SE 22 32 12 17 1012.7 1012.6 0.0
23/05:30pm 22.4 18.8 11.9 51 5.9 SE 22 32 12 17 1012.3 1012.2 0.0
23/05:00pm 22.9 19.9 12.6 52 5.9 SE 20 33 11 18 1012.1 1012.0 0.0

Other Formats:

Comma delimited format used in spreadsheet applications
http://www.bom.gov.au/fwo/IDT60801/IDT60801.94975.axf

JavaScript Object Notation format (JSON) in row-major order
http://www.bom.gov.au/fwo/IDT60801/IDT60801.94975.json